Time;durP1;ratioP1;P1;durP2;ratioP2;P2;SDS_P1;SDS_P2;PMS_P1;PMS_P2;Temp;Humidity;BMP_temperature;BMP_pressure;BME280_temperature;BME280_humidity;BME280_pressure;Samples;Min_cycle;Max_cycle;Signal;HPM_P1;HPM_P2
2021/05/29 00:00:12;;;;;;;29.75;23.07;;;;;;;15.28;100.00;99245.23;1713914;82;20969;-52
2021/05/29 00:02:39;;;;;;;34.13;23.00;;;;;;;15.28;100.00;99245.23;1715446;82;21037;-52
2021/05/29 00:09:09;;;;;;;25.72;18.25;;;;;;;15.31;100.00;99225.99;1790110;77;22710;-51
2021/05/29 00:11:37;;;;;;;32.10;25.65;;;;;;;15.25;100.00;99237.34;1761705;78;21004;-50
2021/05/29 00:14:06;;;;;;;29.85;21.48;;;;;;;15.22;100.00;99227.56;1765235;78;20979;-51
2021/05/29 00:16:33;;;;;;;24.12;19.35;;;;;;;15.20;100.00;99224.98;1764251;80;21555;-51
2021/05/29 00:19:00;;;;;;;23.10;16.93;;;;;;;15.18;100.00;99226.96;1761473;78;21561;-50
2021/05/29 00:21:27;;;;;;;24.82;16.80;;;;;;;15.17;100.00;99225.20;1760907;80;21467;-54
2021/05/29 00:23:54;;;;;;;27.42;17.92;;;;;;;15.13;100.00;99229.16;1760479;78;20928;-52
2021/05/29 00:26:24;;;;;;;26.60;17.67;;;;;;;15.13;100.00;99218.30;1771167;78;21400;-53
2021/05/29 00:28:52;;;;;;;25.92;16.57;;;;;;;15.12;100.00;99213.83;1760548;78;20992;-51
2021/05/29 00:31:22;;;;;;;19.37;14.63;;;;;;;15.12;100.00;99213.83;1761279;80;20916;-52
2021/05/29 00:33:50;;;;;;;20.77;15.68;;;;;;;15.11;100.00;99212.09;1767504;79;20995;-52
2021/05/29 00:36:17;;;;;;;15.45;13.48;;;;;;;15.11;100.00;99205.31;1763434;78;20951;-53
2021/05/29 00:38:48;;;;;;;20.20;14.65;;;;;;;15.13;100.00;99207.44;1762273;78;21045;-52
2021/05/29 00:41:12;;;;;;;17.42;14.18;;;;;;;15.15;100.00;99205.45;1762568;78;21245;-52
2021/05/29 00:43:39;;;;;;;19.60;16.12;;;;;;;15.17;100.00;99196.68;1767607;80;20944;-52
2021/05/29 00:46:06;;;;;;;22.45;17.20;;;;;;;15.20;100.00;99195.09;1760439;78;21464;-53
2021/05/29 00:48:34;;;;;;;20.97;16.65;;;;;;;15.24;100.00;99197.09;1759715;80;20987;-52
2021/05/29 00:51:02;;;;;;;20.75;16.70;;;;;;;15.26;100.00;99202.39;1762712;80;21087;-51
2021/05/29 00:53:31;;;;;;;20.80;16.02;;;;;;;15.27;100.00;99200.05;1766489;80;20939;-52
2021/05/29 00:55:58;;;;;;;21.33;16.73;;;;;;;15.29;100.00;99189.94;1766348;78;20900;-54
2021/05/29 00:58:26;;;;;;;30.17;20.20;;;;;;;15.33;100.00;99188.19;1760973;78;21650;-53
2021/05/29 01:00:53;;;;;;;21.20;17.17;;;;;;;15.34;100.00;99184.98;1763617;80;20940;-53
2021/05/29 01:03:20;;;;;;;21.68;17.52;;;;;;;15.37;100.00;99190.19;1761340;80;21452;-53
2021/05/29 01:05:48;;;;;;;25.97;17.73;;;;;;;15.37;100.00;99186.11;1762256;78;21007;-53
2021/05/29 01:08:14;;;;;;;25.82;18.10;;;;;;;15.38;100.00;99186.48;1757679;78;20944;-53
2021/05/29 01:10:42;;;;;;;18.90;16.05;;;;;;;15.37;100.00;99184.75;1766791;79;21583;-52
2021/05/29 01:13:10;;;;;;;22.67;15.48;;;;;;;15.37;100.00;99180.68;1755976;79;20932;-52
2021/05/29 01:15:42;;;;;;;19.98;15.48;;;;;;;15.35;100.00;99173.16;1756088;79;21629;-53
2021/05/29 01:18:14;;;;;;;17.23;14.75;;;;;;;15.34;100.00;99172.75;1757251;79;20932;-53
2021/05/29 01:20:46;;;;;;;21.55;16.07;;;;;;;15.34;100.00;99176.83;1752282;79;20960;-53
2021/05/29 01:23:14;;;;;;;24.67;15.68;;;;;;;15.35;100.00;99162.28;1754231;79;21555;-54
2021/05/29 01:25:45;;;;;;;20.77;15.30;;;;;;;15.37;100.00;99161.66;1758526;79;21474;-53
2021/05/29 01:28:20;;;;;;;20.68;16.12;;;;;;;15.38;100.00;99166.09;1752417;79;21636;-53
2021/05/29 01:30:59;;;;;;;21.97;17.00;;;;;;;15.38;100.00;99170.17;1753150;79;20976;-53
2021/05/29 01:33:33;;;;;;;19.17;16.40;;;;;;;15.37;100.00;99169.31;1751578;80;21040;-52
2021/05/29 01:36:02;;;;;;;24.23;17.65;;;;;;;15.37;100.00;99165.73;1755912;79;21537;-52
2021/05/29 01:38:29;;;;;;;18.67;15.58;;;;;;;15.37;100.00;99163.02;1753636;79;21008;-52
2021/05/29 01:41:07;;;;;;;20.23;16.15;;;;;;;15.38;100.00;99163.37;1753247;79;21002;-51
2021/05/29 01:43:36;;;;;;;20.12;16.05;;;;;;;15.38;100.00;99165.60;1758354;79;20960;-52
2021/05/29 01:46:04;;;;;;;18.55;15.25;;;;;;;15.38;100.00;99162.02;1755771;79;20901;-53
2021/05/29 01:48:38;;;;;;;21.17;16.02;;;;;;;15.39;100.00;99165.11;1756645;79;20991;-52
2021/05/29 01:51:04;;;;;;;20.52;15.43;;;;;;;15.39;100.00;99167.82;1752954;79;20936;-52
2021/05/29 01:53:32;;;;;;;20.02;16.35;;;;;;;15.41;100.00;99169.94;1752726;79;21011;-53
2021/05/29 01:56:00;;;;;;;18.37;14.70;;;;;;;15.42;100.00;99169.81;1752370;79;21425;-52
2021/05/29 01:58:27;;;;;;;19.10;16.15;;;;;;;15.44;100.00;99172.40;1752345;79;20924;-54
2021/05/29 02:00:54;;;;;;;18.75;14.95;;;;;;;15.44;100.00;99164.25;1756008;79;21027;-54
2021/05/29 02:03:21;;;;;;;20.72;16.00;;;;;;;15.44;100.00;99163.75;1755836;79;20995;-54
2021/05/29 02:05:48;;;;;;;19.40;15.15;;;;;;;15.45;100.00;99165.51;1756538;79;21000;-54
2021/05/29 02:08:14;;;;;;;23.00;17.52;;;;;;;15.46;100.00;99160.94;1751724;80;21549;-55
2021/05/29 02:10:45;;;;;;;21.23;16.35;;;;;;;15.45;100.00;99164.64;1754791;79;20944;-55
2021/05/29 02:13:22;;;;;;;27.00;16.55;;;;;;;15.46;100.00;99159.58;1756235;79;20952;-54
2021/05/29 02:15:49;;;;;;;21.35;17.50;;;;;;;15.43;100.00;99154.37;1758197;80;20960;-55
2021/05/29 02:18:17;;;;;;;22.95;16.25;;;;;;;15.43;100.00;99167.95;1755842;79;21536;-53
2021/05/29 02:20:48;;;;;;;23.20;15.68;;;;;;;15.43;100.00;99166.10;1759652;80;20940;-55
2021/05/29 02:23:23;;;;;;;22.20;16.20;;;;;;;15.44;100.00;99164.25;1757650;79;21408;-54
2021/05/29 02:25:52;;;;;;;22.02;15.13;;;;;;;15.45;100.00;99166.00;1751804;80;20983;-54
2021/05/29 02:28:19;;;;;;;22.10;17.60;;;;;;;15.43;100.00;99151.66;1755896;79;20932;-54
2021/05/29 02:30:46;;;;;;;22.98;16.90;;;;;;;15.41;100.00;99160.44;1753799;79;21580;-53
2021/05/29 02:33:13;;;;;;;25.02;17.65;;;;;;;15.38;100.00;99145.72;1751267;79;21474;-57
2021/05/29 02:35:40;;;;;;;23.87;16.87;;;;;;;15.37;100.00;99141.28;1758214;80;21425;-56
2021/05/29 02:38:07;;;;;;;22.62;16.65;;;;;;;15.36;100.00;99142.27;1751335;79;20947;-56
2021/05/29 02:40:34;;;;;;;22.13;16.27;;;;;;;15.35;100.00;99143.27;1751189;80;20921;-56
2021/05/29 02:43:01;;;;;;;26.57;17.57;;;;;;;15.37;100.00;99138.56;1751247;80;20997;-55
2021/05/29 02:45:29;;;;;;;20.60;15.65;;;;;;;15.36;100.00;99138.20;1753129;80;20971;-55
2021/05/29 02:47:55;;;;;;;21.15;16.40;;;;;;;15.40;100.00;99150.56;1750799;80;21599;-56
2021/05/29 02:50:23;;;;;;;19.17;14.20;;;;;;;15.43;100.00;99138.06;1752770;80;21477;-54
2021/05/29 02:52:50;;;;;;;20.25;15.08;;;;;;;15.46;100.00;99143.27;1753111;79;20948;-56
2021/05/29 02:55:23;;;;;;;21.57;15.58;;;;;;;15.48;100.00;99144.00;1751945;80;21033;-56
2021/05/29 02:57:52;;;;;;;17.27;13.32;;;;;;;15.53;100.00;99146.35;1757161;79;20989;-57
2021/05/29 03:00:21;;;;;;;18.60;14.28;;;;;;;15.56;100.00;99146.13;1751818;80;20893;-56
2021/05/29 03:02:48;;;;;;;16.65;13.83;;;;;;;15.57;100.00;99148.70;1754178;79;21011;-57
2021/05/29 03:05:15;;;;;;;12.78;11.38;;;;;;;15.59;100.00;99148.08;1754116;79;20968;-57
2021/05/29 03:07:42;;;;;;;16.35;12.80;;;;;;;15.57;100.00;99147.34;1751854;79;21030;-56
2021/05/29 03:10:09;;;;;;;17.05;13.53;;;;;;;15.57;100.00;99140.55;1761767;78;20944;-56
2021/05/29 03:12:39;;;;;;;16.10;13.90;;;;;;;15.56;100.00;99140.19;1760129;78;20976;-57
2021/05/29 03:15:10;;;;;;;16.12;13.15;;;;;;;15.53;100.00;99144.50;1761634;78;21792;-61
2021/05/29 03:17:37;;;;;;;14.30;12.73;;;;;;;15.52;100.00;99140.05;1763572;78;20936;-55
2021/05/29 03:20:06;;;;;;;16.57;13.15;;;;;;;15.51;100.00;99141.05;1767632;78;21031;-58
2021/05/29 03:22:33;;;;;;;13.18;11.78;;;;;;;15.49;100.00;99148.44;1761632;78;20929;-56
2021/05/29 03:25:00;;;;;;;17.67;14.05;;;;;;;15.49;100.00;99137.57;1762781;80;20928;-60
2021/05/29 03:27:27;;;;;;;15.98;13.68;;;;;;;15.50;100.00;99146.13;1761425;78;20928;-56
2021/05/29 03:29:54;;;;;;;16.65;14.00;;;;;;;15.53;100.00;99141.78;1759284;78;20904;-55
2021/05/29 03:32:21;;;;;;;15.70;13.48;;;;;;;15.55;100.00;99150.66;1760598;80;21698;-57
2021/05/29 03:34:48;;;;;;;22.02;14.83;;;;;;;15.60;100.00;99145.72;1758567;78;21010;-56
2021/05/29 03:37:15;;;;;;;17.40;15.45;;;;;;;15.63;100.00;99149.59;1759704;78;20964;-53
2021/05/29 03:39:43;;;;;;;19.32;14.25;;;;;;;15.66;100.00;99150.72;1759726;80;20991;-54
2021/05/29 03:42:10;;;;;;;19.12;15.35;;;;;;;15.65;100.00;99153.55;1762508;78;20996;-54
2021/05/29 03:44:37;;;;;;;19.32;13.80;;;;;;;15.62;100.00;99147.84;1762599;78;21002;-55
2021/05/29 03:47:05;;;;;;;20.77;16.62;;;;;;;15.58;100.00;99147.70;1762435;80;21061;-53
2021/05/29 03:49:32;;;;;;;20.50;15.00;;;;;;;15.56;100.00;99148.34;1760041;78;20965;-54
2021/05/29 03:51:59;;;;;;;22.32;16.70;;;;;;;15.55;100.00;99141.15;1759458;78;20988;-55
2021/05/29 03:54:26;;;;;;;21.93;17.32;;;;;;;15.54;100.00;99146.22;1761909;78;20963;-55
2021/05/29 03:56:53;;;;;;;22.67;17.17;;;;;;;15.57;100.00;99155.50;1763856;78;21229;-56
2021/05/29 03:59:21;;;;;;;19.98;17.55;;;;;;;15.59;100.00;99152.65;1763181;80;20908;-56
2021/05/29 04:01:49;;;;;;;19.98;15.78;;;;;;;15.60;100.00;99157.95;1763785;78;20952;-56
2021/05/29 04:04:18;;;;;;;23.52;17.23;;;;;;;15.61;100.00;99156.98;1761257;80;21587;-57
2021/05/29 04:06:45;;;;;;;20.27;16.02;;;;;;;15.66;100.00;99160.23;1760089;80;20952;-58
2021/05/29 04:09:12;;;;;;;22.35;16.23;;;;;;;15.70;100.00;99160.34;1761754;80;21019;-56
2021/05/29 04:11:39;;;;;;;20.32;16.35;;;;;;;15.73;100.00;99155.66;1759832;80;21468;-56
2021/05/29 04:14:08;;;;;;;18.50;15.53;;;;;;;15.71;100.00;99156.66;1763072;78;21536;-56
2021/05/29 04:16:34;;;;;;;17.70;14.83;;;;;;;15.74;100.00;99162.82;1762743;78;21543;-56
2021/05/29 04:19:01;;;;;;;21.23;17.00;;;;;;;15.75;100.00;99160.47;1760636;78;20936;-55
2021/05/29 04:21:28;;;;;;;18.62;14.68;;;;;;;15.75;100.00;99167.27;1769008;78;21619;-56
2021/05/29 04:23:55;;;;;;;19.85;16.32;;;;;;;15.75;100.00;99169.98;1764753;80;20932;-57
2021/05/29 04:26:22;;;;;;;20.82;15.78;;;;;;;15.73;100.00;99171.97;1765008;78;20944;-56
2021/05/29 04:28:50;;;;;;;20.90;15.28;;;;;;;15.71;100.00;99167.53;1761037;80;20912;-56
2021/05/29 04:31:18;;;;;;;22.10;15.85;;;;;;;15.69;100.00;99167.27;1761048;78;20936;-56
2021/05/29 04:33:46;;;;;;;18.60;14.05;;;;;;;15.69;100.00;99173.56;1764039;78;21030;-56
2021/05/29 04:36:13;;;;;;;14.50;12.07;;;;;;;15.68;100.00;99170.48;1764740;80;20991;-56
2021/05/29 04:38:40;;;;;;;14.75;12.13;;;;;;;15.64;100.00;99175.78;1765345;80;20936;-57
2021/05/29 04:41:09;;;;;;;14.05;12.15;;;;;;;15.60;100.00;99168.83;1759200;78;21064;-57
2021/05/29 04:43:36;;;;;;;14.35;9.78;;;;;;;15.58;100.00;99170.81;1760436;80;20952;-56
2021/05/29 04:46:03;;;;;;;12.15;9.15;;;;;;;15.53;100.00;99179.83;1760514;78;21027;-55
2021/05/29 04:48:30;;;;;;;12.65;8.70;;;;;;;15.45;100.00;99191.81;1759438;78;21532;-57
2021/05/29 04:51:15;;;;;;;10.72;7.83;;;;;;;15.35;100.00;99186.73;1760677;80;20948;-57
2021/05/29 04:53:43;;;;;;;8.20;7.12;;;;;;;15.23;100.00;99198.55;1769156;80;21770;-54
2021/05/29 04:56:11;;;;;;;9.75;6.80;;;;;;;15.06;100.00;99195.30;1766260;78;21046;-56
2021/05/29 04:58:38;;;;;;;13.25;7.70;;;;;;;15.02;100.00;99197.91;1766685;78;21709;-55
2021/05/29 05:01:07;;;;;;;9.20;6.25;;;;;;;14.93;100.00;99197.24;1764046;78;20925;-54
2021/05/29 05:03:37;;;;;;;11.30;6.92;;;;;;;14.89;100.00;99195.74;1766231;78;20980;-55
2021/05/29 05:06:04;;;;;;;8.60;7.72;;;;;;;14.83;100.00;99197.58;1763151;80;20988;-55
2021/05/29 05:08:31;;;;;;;9.25;7.72;;;;;;;14.80;100.00;99205.94;1764394;78;20972;-55
2021/05/29 05:11:00;;;;;;;7.20;6.05;;;;;;;14.80;100.00;99205.94;1759928;79;20984;-55
2021/05/29 05:13:28;;;;;;;8.58;7.00;;;;;;;14.77;100.00;99204.84;1756908;79;21543;-56
2021/05/29 05:15:55;;;;;;;10.10;8.00;;;;;;;14.74;100.00;99214.06;1756360;79;21012;-54
2021/05/29 05:18:23;;;;;;;9.25;7.53;;;;;;;14.72;100.00;99213.33;1754494;79;20952;-56
2021/05/29 05:20:50;;;;;;;10.60;7.05;;;;;;;14.68;100.00;99215.39;1757870;79;21568;-55
2021/05/29 05:23:21;;;;;;;9.00;7.97;;;;;;;14.66;100.00;99214.66;1757143;80;21041;-55
2021/05/29 05:25:46;;;;;;;8.75;7.08;;;;;;;14.64;100.00;99224.74;1753134;79;20940;-54
2021/05/29 05:28:13;;;;;;;12.20;6.78;;;;;;;14.64;100.00;99219.31;1753632;79;20924;-55
2021/05/29 05:30:40;;;;;;;8.40;7.58;;;;;;;14.63;100.00;99217.59;1754215;79;21004;-54
2021/05/29 05:33:08;;;;;;;11.65;6.78;;;;;;;14.63;100.00;99216.23;1754604;79;20953;-56
2021/05/29 05:35:35;;;;;;;10.08;6.87;;;;;;;14.62;100.00;99218.58;1752565;79;21004;-60
2021/05/29 05:38:02;;;;;;;7.95;6.08;;;;;;;14.65;100.00;99217.50;1753909;79;21021;-56
2021/05/29 05:40:29;;;;;;;7.45;4.92;;;;;;;14.65;100.00;99215.65;1711980;82;21017;-55
2021/05/29 05:42:56;;;;;;;5.70;5.12;;;;;;;14.66;100.00;99222.80;1754961;79;21333;-55
2021/05/29 05:45:23;;;;;;;8.18;5.30;;;;;;;14.70;100.00;99227.98;1753015;79;21047;-56
2021/05/29 05:47:49;;;;;;;5.67;4.92;;;;;;;14.73;100.00;99219.61;1761964;79;21344;-58
2021/05/29 05:50:16;;;;;;;5.53;4.58;;;;;;;14.75;100.00;99235.28;1752965;78;20944;-55
2021/05/29 05:52:43;;;;;;;8.70;4.08;;;;;;;14.78;100.00;99229.64;1751287;79;21439;-55
2021/05/29 05:55:11;;;;;;;4.00;3.55;;;;;;;14.79;100.00;99227.29;1753486;80;21483;-57
2021/05/29 05:57:40;;;;;;;4.08;3.70;;;;;;;14.82;100.00;99229.78;1753513;80;20901;-56
2021/05/29 06:00:10;;;;;;;4.08;3.60;;;;;;;14.84;100.00;99225.09;1750671;80;21041;-55
2021/05/29 06:02:36;;;;;;;4.05;3.40;;;;;;;14.86;100.00;99225.83;1756210;79;21884;-58
2021/05/29 06:05:04;;;;;;;6.78;3.67;;;;;;;14.87;100.00;99239.31;1752671;79;20961;-56
2021/05/29 06:07:31;;;;;;;3.77;3.40;;;;;;;14.90;100.00;99232.77;1752787;79;20973;-56
2021/05/29 06:09:58;;;;;;;5.25;3.40;;;;;;;14.93;100.00;99235.26;1757096;78;21521;-55
2021/05/29 06:12:25;;;;;;;4.30;3.45;;;;;;;14.92;100.00;99244.39;1759409;80;21025;-56
2021/05/29 06:20:22;;;;;;;4.33;3.92;;;;;;;14.95;100.00;99238.71;1762139;78;20942;-56
2021/05/29 06:22:49;;;;;;;4.05;3.40;;;;;;;14.99;100.00;99240.22;1763365;78;20936;-55
2021/05/29 06:25:16;;;;;;;5.55;3.42;;;;;;;15.01;100.00;99232.80;1764743;78;20985;-56
2021/05/29 06:27:43;;;;;;;4.40;3.72;;;;;;;15.08;100.00;99250.38;1760682;80;20952;-56
2021/05/29 06:30:11;;;;;;;5.20;3.30;;;;;;;15.20;100.00;99237.70;1765086;78;21057;-59
2021/05/29 06:32:38;;;;;;;3.40;3.10;;;;;;;15.33;100.00;99244.39;1762099;78;20975;-56
2021/05/29 06:35:07;;;;;;;3.50;3.02;;;;;;;15.48;100.00;99241.83;1763200;78;20955;-58
2021/05/29 06:37:35;;;;;;;3.00;2.80;;;;;;;15.69;100.00;99242.88;1761728;78;21037;-58
2021/05/29 06:40:05;;;;;;;3.55;2.85;;;;;;;15.98;100.00;99256.03;1764809;78;20976;-57
2021/05/29 06:42:32;;;;;;;6.22;2.87;;;;;;;16.16;100.00;99232.76;1764187;78;20924;-59
2021/05/29 06:44:59;;;;;;;4.75;2.50;;;;;;;16.27;99.78;99244.63;1765554;78;20972;-57
2021/05/29 06:47:26;;;;;;;6.10;3.55;;;;;;;16.29;98.71;99250.79;1762933;80;21599;-57
2021/05/29 06:49:54;;;;;;;3.98;3.35;;;;;;;16.28;99.00;99253.15;1762268;78;21641;-57
2021/05/29 06:52:27;;;;;;;5.90;3.05;;;;;;;16.31;98.21;99277.41;1761565;78;21296;-58
2021/05/29 07:00:08;;;;;;;6.80;3.05;;;;;;;16.35;97.06;99284.30;1761974;78;21112;-54
2021/05/29 07:02:35;;;;;;;2.92;2.50;;;;;;;16.32;95.52;99269.60;1762886;78;21049;-56
2021/05/29 07:05:04;;;;;;;6.75;2.92;;;;;;;16.30;95.56;99264.30;1759522;78;20988;-57
2021/05/29 07:07:31;;;;;;;2.95;2.50;;;;;;;16.28;95.01;99267.62;1772893;78;20999;-55
2021/05/29 07:09:58;;;;;;;2.47;2.27;;;;;;;16.21;93.91;99267.26;1760337;78;21388;-55
2021/05/29 07:12:25;;;;;;;5.65;3.00;;;;;;;16.20;93.93;99272.33;1753938;79;20996;-55
2021/05/29 07:14:52;;;;;;;3.77;3.02;;;;;;;16.23;94.82;99268.48;1766329;76;21073;-54
2021/05/29 07:17:21;;;;;;;7.80;4.12;;;;;;;16.27;94.28;99275.91;1753690;80;21015;-57
2021/05/29 07:19:50;;;;;;;7.22;3.25;;;;;;;16.30;94.55;99271.56;1755170;80;20968;-51
2021/05/29 07:22:16;;;;;;;2.35;2.15;;;;;;;16.33;95.51;99276.77;1759357;79;21024;-53
2021/05/29 07:24:44;;;;;;;5.00;2.60;;;;;;;16.31;95.99;99295.95;1752630;79;20905;-55
2021/05/29 07:27:11;;;;;;;3.10;2.70;;;;;;;16.19;96.34;99277.41;1753636;79;21814;-52
2021/05/29 07:29:38;;;;;;;5.40;2.60;;;;;;;16.12;97.74;99287.03;1753105;80;21059;-54
2021/05/29 07:32:06;;;;;;;3.95;2.80;;;;;;;16.08;98.00;99278.74;1753241;80;20916;-52
2021/05/29 07:34:33;;;;;;;4.85;2.42;;;;;;;16.08;97.85;99284.69;1754986;80;20956;-51
2021/05/29 07:37:00;;;;;;;5.30;2.58;;;;;;;16.04;97.48;99277.28;1756177;79;20940;-50
2021/05/29 07:39:27;;;;;;;3.12;2.83;;;;;;;16.01;97.71;99276.16;1756832;80;21078;-50
2021/05/29 07:41:55;;;;;;;3.30;2.67;;;;;;;15.96;97.45;99296.06;1758490;80;20976;-51
2021/05/29 07:44:23;;;;;;;3.25;2.25;;;;;;;15.90;96.61;99280.23;1760538;79;20968;-52
2021/05/29 07:46:49;;;;;;;5.25;3.05;;;;;;;15.89;97.07;99294.83;1761196;80;21049;-53
2021/05/29 07:49:17;;;;;;;3.08;2.40;;;;;;;15.88;97.27;99274.06;1758467;79;20973;-51
2021/05/29 07:51:44;;;;;;;3.00;2.70;;;;;;;15.86;96.54;99287.77;1758956;79;20936;-54
2021/05/29 07:54:12;;;;;;;3.85;2.80;;;;;;;15.88;95.96;99284.95;1757895;80;20971;-52
2021/05/29 07:56:39;;;;;;;4.22;3.22;;;;;;;15.90;96.15;99292.47;1754074;78;20960;-54
2021/05/29 07:59:10;;;;;;;4.40;2.70;;;;;;;15.92;95.61;99287.27;1754300;79;20988;-57
2021/05/29 08:01:35;;;;;;;6.70;2.72;;;;;;;15.94;94.96;99293.47;1755842;79;20964;-59
2021/05/29 08:04:03;;;;;;;5.53;3.27;;;;;;;15.98;95.03;99288.66;1758087;80;21652;-55
2021/05/29 08:06:30;;;;;;;6.10;3.17;;;;;;;16.07;95.09;99296.56;1761439;79;21042;-54
2021/05/29 08:08:58;;;;;;;5.35;3.42;;;;;;;16.14;94.23;99285.08;1756045;79;21415;-56
2021/05/29 08:11:25;;;;;;;5.10;3.47;;;;;;;16.19;94.25;99305.98;1766384;78;20927;-54
2021/05/29 08:13:55;;;;;;;10.15;3.77;;;;;;;16.21;94.34;99291.75;1764775;78;20952;-54
2021/05/29 08:16:22;;;;;;;3.92;3.05;;;;;;;16.29;94.40;99305.22;1764425;78;21041;-55
2021/05/29 08:18:50;;;;;;;3.98;3.00;;;;;;;16.37;93.98;99298.67;1766264;80;20951;-57
2021/05/29 08:21:17;;;;;;;5.35;3.27;;;;;;;16.38;93.58;99301.25;1764605;80;20901;-58
2021/05/29 08:23:45;;;;;;;4.20;3.05;;;;;;;16.40;93.30;99297.91;1767192;78;21027;-56
2021/05/29 08:26:13;;;;;;;5.55;3.05;;;;;;;16.41;91.54;99296.08;1768125;78;20948;-56
2021/05/29 08:28:40;;;;;;;5.35;3.50;;;;;;;16.36;91.35;99301.89;1767588;78;21040;-54
2021/05/29 08:31:07;;;;;;;6.22;3.80;;;;;;;16.40;92.16;99318.81;1760412;78;21429;-54
2021/05/29 08:33:33;;;;;;;3.90;3.20;;;;;;;16.43;92.13;99304.97;1761108;78;20967;-53
2021/05/29 08:36:00;;;;;;;5.50;3.45;;;;;;;16.43;91.82;99318.58;1766109;78;20987;-55
2021/05/29 08:38:27;;;;;;;8.08;3.45;;;;;;;16.42;90.96;99303.24;1765233;80;20992;-55
2021/05/29 08:40:54;;;;;;;4.08;3.42;;;;;;;16.39;90.91;99314.37;1761341;78;21038;-55
2021/05/29 08:43:21;;;;;;;4.45;3.42;;;;;;;16.35;90.00;99301.98;1765277;78;21626;-55
2021/05/29 08:45:49;;;;;;;4.03;3.42;;;;;;;16.34;90.78;99307.07;1762766;78;20945;-51
2021/05/29 08:48:17;;;;;;;5.28;3.60;;;;;;;16.37;90.97;99301.39;1761840;78;20995;-53
2021/05/29 08:53:30;;;;;;;4.95;3.50;;;;;;;16.48;91.02;99300.87;1766246;80;21054;-52
2021/05/29 08:55:58;;;;;;;7.25;3.62;;;;;;;16.57;90.16;99299.27;1762574;78;20995;-51
2021/05/29 08:58:25;;;;;;;5.58;3.62;;;;;;;16.64;89.96;99296.90;1761277;80;20956;-56
2021/05/29 09:00:52;;;;;;;6.47;3.58;;;;;;;16.71;89.30;99305.81;1762365;78;21008;-53
2021/05/29 09:03:19;;;;;;;4.55;3.60;;;;;;;16.76;89.36;99312.25;1762526;80;21686;-53
2021/05/29 09:05:52;;;;;;;6.65;3.70;;;;;;;16.82;88.61;99316.31;1763549;78;21057;-53
2021/05/29 09:08:21;;;;;;;6.92;4.37;;;;;;;16.89;87.61;99312.11;1763457;78;21357;-51
2021/05/29 09:10:52;;;;;;;6.78;3.22;;;;;;;16.96;87.62;99309.23;1765602;78;21456;-50
2021/05/29 09:13:25;;;;;;;8.05;3.52;;;;;;;17.02;85.45;99312.80;1761862;80;20904;-53
2021/05/29 09:16:05;;;;;;;5.67;3.43;;;;;;;17.01;85.27;99313.80;1762094;78;21495;-54
2021/05/29 09:18:36;;;;;;;4.58;3.65;;;;;;;16.97;84.96;99317.27;1765642;78;21654;-51
2021/05/29 09:21:33;;;;;;;5.58;3.60;;;;;;;16.98;85.66;99308.59;1765722;78;21238;-52
2021/05/29 09:24:12;;;;;;;4.33;3.50;;;;;;;16.98;85.62;99324.94;1763372;78;21524;-52
2021/05/29 09:26:52;;;;;;;5.80;3.05;;;;;;;16.93;85.11;99323.09;1766239;78;21464;-55
2021/05/29 09:29:25;;;;;;;3.45;3.10;;;;;;;16.90;85.63;99318.78;1759818;80;20999;-52
2021/05/29 09:32:02;;;;;;;5.05;2.87;;;;;;;16.97;85.46;99313.18;1760791;78;21080;-52
2021/05/29 09:34:47;;;;;;;5.60;3.40;;;;;;;17.05;83.97;99309.83;1762252;79;21118;-51
2021/05/29 09:37:27;;;;;;;5.62;3.45;;;;;;;17.10;84.20;99315.77;1760507;78;20924;-51
2021/05/29 09:39:54;;;;;;;4.60;2.70;;;;;;;17.15;83.65;99331.23;1763333;80;20988;-51
2021/05/29 09:42:32;;;;;;;4.03;3.17;;;;;;;17.09;81.36;99327.63;1760178;80;20999;-52
2021/05/29 09:45:26;;;;;;;4.83;3.10;;;;;;;16.98;81.66;99327.66;1764174;78;21034;-51
2021/05/29 09:48:19;;;;;;;4.90;3.30;;;;;;;16.94;83.20;99338.47;1744913;80;20982;-50
